Wilson, Connecticut
Current Conditions -  °F | °C
As of 11:51 AM on Friday 28 Nov 2014 (Local Time) from KBDL Reporting Station
Few Clouds Few Clouds  
Wind Chill: 27°   Ceiling: Unl
Heat Index: 35°   Visibility: 10mi
Dew Point: 19°   Wind: 12mph
Humidity: 52%   Direction: 330°NNW
Pressure: 30.1"   Gusts: 22mph
Location:  41.8596°N, 72.6791°W
Report Text: KBDL 281651Z 33010G19KT 10SM FEW038 02/M07 A3010 RMK AO2 SLP194 T00171072
Loading
Personal Weather Stations






























Interactive Weather Map New forecast layout! Learn more

10-Day Weather Forecast

Advertisements
Track Severe Weather on mobile